Time;durP1;ratioP1;P1;durP2;ratioP2;P2;SDS_P1;SDS_P2;PMS_P1;PMS_P2;Temp;Humidity;BMP_temperature;BMP_pressure;BME280_temperature;BME280_humidity;BME280_pressure;Samples;Min_cycle;Max_cycle;Signal;HPM_P1;HPM_P2
2023/08/21 00:00:29;;;;;;;5.25;1.98;;;;;;;;;;5035724;28;20398;-63
2023/08/21 00:02:55;;;;;;;4.32;1.98;;;;;;;;;;5009400;28;20050;-61
2023/08/21 00:05:22;;;;;;;7.05;1.75;;;;;;;;;;5003124;28;20077;-61
2023/08/21 00:07:50;;;;;;;5.13;2.25;;;;;;;;;;5015288;28;20061;-61
2023/08/21 00:10:17;;;;;;;7.50;2.33;;;;;;;;;;5042335;28;20061;-59
2023/08/21 00:12:44;;;;;;;3.13;1.90;;;;;;;;;;5042728;28;20079;-63
2023/08/21 00:15:10;;;;;;;5.20;1.90;;;;;;;;;;5020123;28;20054;-62
2023/08/21 00:17:37;;;;;;;6.50;2.00;;;;;;;;;;5016168;28;20638;-59
2023/08/21 00:20:03;;;;;;;7.22;2.58;;;;;;;;;;5041684;28;20049;-60
2023/08/21 00:22:30;;;;;;;10.27;2.45;;;;;;;;;;5023769;28;20058;-62
2023/08/21 00:24:56;;;;;;;4.88;2.20;;;;;;;;;;5029818;28;20061;-61
2023/08/21 00:27:23;;;;;;;5.95;1.70;;;;;;;;;;5022835;28;20061;-62
2023/08/21 00:29:49;;;;;;;5.20;2.20;;;;;;;;;;5041799;28;20057;-62
2023/08/21 00:32:16;;;;;;;4.60;2.10;;;;;;;;;;5005908;28;20113;-62
2023/08/21 00:34:42;;;;;;;6.80;2.42;;;;;;;;;;5003055;28;20079;-61
2023/08/21 00:37:09;;;;;;;6.40;2.10;;;;;;;;;;5002474;28;20146;-61
2023/08/21 00:39:35;;;;;;;5.35;2.10;;;;;;;;;;5039531;28;20081;-57
2023/08/21 00:42:02;;;;;;;9.45;2.92;;;;;;;;;;5045225;28;20073;-58
2023/08/21 00:44:28;;;;;;;5.93;2.67;;;;;;;;;;5045396;28;20136;-61
2023/08/21 00:46:54;;;;;;;9.95;2.50;;;;;;;;;;5009969;28;20054;-59
2023/08/21 00:49:21;;;;;;;6.72;2.40;;;;;;;;;;5054149;28;20069;-61
2023/08/21 00:51:49;;;;;;;6.78;2.40;;;;;;;;;;5034413;28;20133;-61
2023/08/21 00:54:16;;;;;;;6.80;2.30;;;;;;;;;;5006007;28;20137;-62
2023/08/21 00:56:44;;;;;;;3.70;2.40;;;;;;;;;;5012031;28;20053;-63
2023/08/21 00:59:11;;;;;;;8.75;2.58;;;;;;;;;;5033430;28;20046;-60
2023/08/21 01:01:37;;;;;;;3.92;2.25;;;;;;;;;;5005275;28;20144;-61
2023/08/21 01:04:04;;;;;;;5.28;2.10;;;;;;;;;;5006021;28;20468;-63
2023/08/21 01:06:30;;;;;;;4.93;2.40;;;;;;;;;;5005987;28;20258;-62
2023/08/21 01:09:00;;;;;;;6.57;2.67;;;;;;;;;;5032470;28;20611;-62
2023/08/21 01:11:34;;;;;;;4.20;2.20;;;;;;;;;;5013215;28;20523;-61
2023/08/21 01:14:08;;;;;;;13.90;3.08;;;;;;;;;;5006557;28;20166;-61
2023/08/21 01:16:35;;;;;;;5.40;2.47;;;;;;;;;;5005241;28;20519;-61
2023/08/21 01:19:03;;;;;;;8.10;2.88;;;;;;;;;;5032731;28;20060;-60
2023/08/21 01:21:29;;;;;;;7.25;2.88;;;;;;;;;;5029101;28;20054;-63
2023/08/21 01:23:56;;;;;;;9.50;3.47;;;;;;;;;;5024923;28;20144;-63
2023/08/21 01:26:22;;;;;;;6.65;3.20;;;;;;;;;;5021794;28;20581;-61
2023/08/21 01:28:49;;;;;;;12.35;3.30;;;;;;;;;;5035614;28;20053;-63
2023/08/21 01:31:18;;;;;;;6.95;3.35;;;;;;;;;;5043094;28;20053;-62
2023/08/21 01:33:46;;;;;;;6.65;2.70;;;;;;;;;;5044797;28;20103;-62
2023/08/21 01:36:13;;;;;;;7.90;3.30;;;;;;;;;;5043328;28;20140;-62
2023/08/21 01:38:40;;;;;;;9.35;2.80;;;;;;;;;;5034991;28;20136;-60
2023/08/21 01:41:06;;;;;;;5.63;2.75;;;;;;;;;;5044458;28;20123;-61
2023/08/21 01:43:33;;;;;;;8.20;3.10;;;;;;;;;;5030272;28;20054;-61
2023/08/21 01:46:03;;;;;;;5.57;3.10;;;;;;;;;;5024498;28;20054;-61
2023/08/21 01:48:29;;;;;;;8.07;3.17;;;;;;;;;;5032081;28;20069;-60
2023/08/21 01:50:56;;;;;;;7.45;3.05;;;;;;;;;;5043295;28;20049;-62
2023/08/21 01:53:22;;;;;;;9.05;3.85;;;;;;;;;;5025918;28;20041;-57
2023/08/21 01:55:48;;;;;;;6.80;3.80;;;;;;;;;;5004608;28;20088;-60
2023/08/21 01:58:15;;;;;;;8.38;3.05;;;;;;;;;;5015737;28;20418;-60
2023/08/21 02:00:41;;;;;;;7.15;3.17;;;;;;;;;;5044025;28;20085;-61
2023/08/21 02:03:07;;;;;;;5.30;2.90;;;;;;;;;;5043897;28;20151;-62
2023/08/21 02:05:38;;;;;;;8.60;3.30;;;;;;;;;;5044074;28;20050;-59
2023/08/21 02:08:05;;;;;;;7.63;2.72;;;;;;;;;;5042467;28;20054;-59
2023/08/21 02:10:32;;;;;;;3.70;2.92;;;;;;;;;;5041078;28;20684;-60
2023/08/21 02:12:58;;;;;;;7.65;3.13;;;;;;;;;;5044080;28;20132;-62
2023/08/21 02:15:25;;;;;;;8.80;3.45;;;;;;;;;;5043820;28;21110;-61
2023/08/21 02:17:52;;;;;;;4.55;2.58;;;;;;;;;;5042965;28;20478;-63
2023/08/21 02:20:18;;;;;;;5.35;3.05;;;;;;;;;;5037119;28;20146;-63
2023/08/21 02:22:44;;;;;;;7.60;2.67;;;;;;;;;;5011250;28;20525;-63
2023/08/21 02:25:11;;;;;;;5.70;2.78;;;;;;;;;;5003713;28;20506;-62
2023/08/21 02:27:37;;;;;;;7.95;2.90;;;;;;;;;;5017322;28;20057;-63
2023/08/21 02:30:04;;;;;;;7.63;3.03;;;;;;;;;;5042735;28;20488;-61
2023/08/21 02:32:31;;;;;;;5.68;2.70;;;;;;;;;;5033846;28;20050;-60
2023/08/21 02:34:57;;;;;;;6.75;2.85;;;;;;;;;;5023891;28;20089;-61
2023/08/21 02:37:23;;;;;;;7.90;2.58;;;;;;;;;;5023842;28;20573;-62
2023/08/21 02:39:50;;;;;;;8.15;2.83;;;;;;;;;;5033685;28;20742;-61
2023/08/21 02:42:16;;;;;;;8.30;2.95;;;;;;;;;;5003823;28;20058;-61
2023/08/21 02:44:42;;;;;;;9.15;3.05;;;;;;;;;;5004693;28;20840;-63
2023/08/21 02:47:09;;;;;;;5.93;2.70;;;;;;;;;;5003515;28;20164;-62
2023/08/21 02:49:35;;;;;;;7.28;2.70;;;;;;;;;;5034798;28;20079;-61
2023/08/21 02:52:02;;;;;;;5.85;2.72;;;;;;;;;;5033484;28;20137;-62
2023/08/21 02:54:28;;;;;;;5.32;2.65;;;;;;;;;;5003888;28;20058;-61
2023/08/21 02:56:54;;;;;;;9.43;2.63;;;;;;;;;;5003243;28;20069;-61
2023/08/21 02:59:21;;;;;;;8.02;3.35;;;;;;;;;;5027034;28;20522;-62
2023/08/21 03:01:47;;;;;;;7.90;2.22;;;;;;;;;;5042789;28;20053;-58
2023/08/21 03:04:14;;;;;;;8.60;2.80;;;;;;;;;;5037708;28;20517;-63
2023/08/21 03:06:41;;;;;;;7.43;2.75;;;;;;;;;;5021148;28;20061;-63
2023/08/21 03:09:07;;;;;;;4.75;2.33;;;;;;;;;;5043387;28;20148;-61
2023/08/21 03:11:33;;;;;;;9.45;2.65;;;;;;;;;;5008456;28;20137;-61
2023/08/21 03:14:00;;;;;;;7.80;3.20;;;;;;;;;;5003462;28;20493;-61
2023/08/21 03:16:27;;;;;;;9.55;2.88;;;;;;;;;;5033347;28;20060;-62
2023/08/21 03:18:55;;;;;;;8.07;2.97;;;;;;;;;;5039719;28;20132;-62
2023/08/21 03:21:23;;;;;;;7.70;2.83;;;;;;;;;;5026088;28;20053;-61
2023/08/21 03:23:50;;;;;;;9.07;3.20;;;;;;;;;;5002652;28;20055;-62
2023/08/21 03:26:17;;;;;;;5.68;3.15;;;;;;;;;;5018185;28;20062;-62
2023/08/21 03:28:43;;;;;;;7.63;3.17;;;;;;;;;;5038432;28;20054;-62
2023/08/21 03:31:10;;;;;;;7.03;3.22;;;;;;;;;;5035518;28;20535;-61
2023/08/21 03:33:36;;;;;;;10.15;3.65;;;;;;;;;;5007561;28;20058;-61
2023/08/21 03:36:03;;;;;;;5.10;2.80;;;;;;;;;;5023434;28;20085;-60
2023/08/21 03:38:29;;;;;;;9.18;2.97;;;;;;;;;;5034564;28;20056;-62
2023/08/21 03:40:55;;;;;;;7.15;2.90;;;;;;;;;;5041900;28;20065;-61
2023/08/21 03:43:22;;;;;;;7.97;4.10;;;;;;;;;;5042611;28;20054;-62
2023/08/21 03:45:48;;;;;;;9.27;3.15;;;;;;;;;;5042998;28;20097;-61
2023/08/21 03:48:15;;;;;;;6.68;3.10;;;;;;;;;;5021590;28;20060;-62
2023/08/21 03:50:41;;;;;;;4.90;2.38;;;;;;;;;;5003022;28;20058;-62
2023/08/21 03:53:08;;;;;;;9.75;2.95;;;;;;;;;;5017183;28;20416;-62
2023/08/21 03:55:34;;;;;;;10.57;3.03;;;;;;;;;;5012819;28;20089;-62
2023/08/21 03:58:00;;;;;;;6.05;2.78;;;;;;;;;;5020842;28;20049;-62
2023/08/21 04:00:27;;;;;;;5.72;2.75;;;;;;;;;;5042670;28;20057;-63
2023/08/21 04:02:53;;;;;;;8.43;2.72;;;;;;;;;;5042866;28;20066;-61
2023/08/21 04:05:20;;;;;;;7.15;2.47;;;;;;;;;;5007634;28;20065;-62
2023/08/21 04:07:46;;;;;;;5.95;2.50;;;;;;;;;;5016168;28;20147;-58
2023/08/21 04:10:12;;;;;;;5.38;2.60;;;;;;;;;;5042432;28;20595;-61
2023/08/21 04:12:39;;;;;;;8.70;2.42;;;;;;;;;;5042620;28;20131;-61
2023/08/21 04:15:06;;;;;;;5.93;2.50;;;;;;;;;;5035666;28;20061;-62
2023/08/21 04:17:32;;;;;;;5.55;2.45;;;;;;;;;;5030149;28;20068;-60
2023/08/21 04:19:59;;;;;;;3.40;2.22;;;;;;;;;;5029728;28;20516;-59
2023/08/21 04:22:25;;;;;;;7.43;2.40;;;;;;;;;;5014778;28;20088;-62
2023/08/21 04:24:52;;;;;;;7.95;2.22;;;;;;;;;;5024676;28;20062;-60
2023/08/21 04:27:18;;;;;;;7.50;2.55;;;;;;;;;;5030942;28;21791;-62
2023/08/21 04:29:44;;;;;;;6.78;2.50;;;;;;;;;;5045884;28;20127;-62
2023/08/21 04:32:12;;;;;;;5.47;2.42;;;;;;;;;;5045754;28;20054;-62
2023/08/21 04:34:38;;;;;;;5.20;2.38;;;;;;;;;;5033945;28;20137;-62
2023/08/21 04:37:05;;;;;;;6.80;2.45;;;;;;;;;;5027484;28;20061;-62
2023/08/21 04:39:31;;;;;;;5.82;2.40;;;;;;;;;;5033222;28;21119;-63
2023/08/21 04:41:58;;;;;;;9.65;2.53;;;;;;;;;;5034430;28;20488;-61
2023/08/21 04:44:25;;;;;;;6.20;2.25;;;;;;;;;;5039456;28;20701;-60
2023/08/21 04:46:51;;;;;;;6.22;2.35;;;;;;;;;;5025823;28;20065;-63
2023/08/21 04:49:18;;;;;;;10.63;2.72;;;;;;;;;;5043873;28;20050;-61
2023/08/21 04:51:44;;;;;;;6.20;2.50;;;;;;;;;;5029857;28;20069;-62
2023/08/21 04:54:10;;;;;;;4.85;2.22;;;;;;;;;;5024711;28;20076;-61
2023/08/21 04:56:37;;;;;;;6.43;3.13;;;;;;;;;;5027766;28;20053;-62
2023/08/21 04:59:03;;;;;;;7.43;3.10;;;;;;;;;;5043978;28;20061;-62
2023/08/21 05:01:30;;;;;;;5.72;3.05;;;;;;;;;;5033420;28;20145;-61
2023/08/21 05:03:57;;;;;;;8.25;3.33;;;;;;;;;;5035853;28;20482;-59
2023/08/21 05:06:23;;;;;;;3.70;2.63;;;;;;;;;;5010574;28;20061;-60
2023/08/21 05:08:49;;;;;;;7.35;3.30;;;;;;;;;;5004833;28;20055;-63
2023/08/21 05:11:16;;;;;;;8.40;4.13;;;;;;;;;;5014251;28;20099;-62
2023/08/21 05:13:42;;;;;;;5.20;3.03;;;;;;;;;;5040167;28;20077;-62
2023/08/21 05:16:09;;;;;;;7.20;3.40;;;;;;;;;;5041559;28;20060;-62
2023/08/21 05:18:35;;;;;;;5.05;2.80;;;;;;;;;;5038329;28;20064;-63
2023/08/21 05:21:02;;;;;;;5.53;2.70;;;;;;;;;;5039714;28;20172;-64
2023/08/21 05:23:28;;;;;;;6.30;3.17;;;;;;;;;;5016097;28;20441;-59
2023/08/21 05:25:54;;;;;;;8.93;2.60;;;;;;;;;;5023191;28;20149;-64
2023/08/21 05:28:21;;;;;;;7.05;3.00;;;;;;;;;;5024531;28;20065;-63
2023/08/21 05:30:50;;;;;;;5.40;2.75;;;;;;;;;;5007458;28;20101;-61
2023/08/21 05:33:16;;;;;;;5.47;2.90;;;;;;;;;;5007910;28;20920;-61
2023/08/21 05:35:43;;;;;;;7.32;3.03;;;;;;;;;;5011042;28;20133;-60
2023/08/21 05:38:09;;;;;;;11.73;3.38;;;;;;;;;;5015928;28;20132;-60
2023/08/21 05:40:36;;;;;;;5.95;2.80;;;;;;;;;;5016422;28;20410;-58
2023/08/21 05:43:02;;;;;;;6.47;2.83;;;;;;;;;;5022595;28;20104;-60
2023/08/21 05:45:29;;;;;;;4.07;3.00;;;;;;;;;;5024270;28;20576;-62
2023/08/21 05:47:56;;;;;;;5.50;2.80;;;;;;;;;;5023432;28;20504;-63
2023/08/21 05:50:22;;;;;;;6.53;3.28;;;;;;;;;;5023959;28;20116;-64
2023/08/21 05:52:49;;;;;;;7.22;3.50;;;;;;;;;;5023494;28;20509;-62
2023/08/21 05:55:15;;;;;;;4.60;3.13;;;;;;;;;;5018323;28;20051;-63
2023/08/21 05:57:42;;;;;;;5.90;3.45;;;;;;;;;;5023175;28;20412;-61
2023/08/21 06:00:08;;;;;;;10.13;3.53;;;;;;;;;;5024946;28;20057;-63
2023/08/21 06:02:35;;;;;;;5.97;3.53;;;;;;;;;;5043666;28;20120;-61
2023/08/21 06:05:03;;;;;;;10.98;3.80;;;;;;;;;;5037404;28;20246;-63
2023/08/21 06:07:29;;;;;;;9.63;4.05;;;;;;;;;;5041070;28;20099;-64
2023/08/21 06:09:55;;;;;;;11.95;4.00;;;;;;;;;;5031829;28;20050;-66
2023/08/21 06:12:22;;;;;;;6.07;3.58;;;;;;;;;;5024152;28;20112;-65
2023/08/21 06:14:48;;;;;;;6.85;2.90;;;;;;;;;;5038569;28;20050;-63
2023/08/21 06:17:15;;;;;;;11.07;3.70;;;;;;;;;;5029208;28;20057;-63
2023/08/21 06:19:41;;;;;;;4.95;3.17;;;;;;;;;;5033742;28;20542;-64
2023/08/21 06:22:08;;;;;;;9.43;3.08;;;;;;;;;;5030763;28;20455;-63
2023/08/21 06:24:34;;;;;;;6.45;3.17;;;;;;;;;;5034843;28;20946;-64
2023/08/21 06:27:01;;;;;;;8.73;3.03;;;;;;;;;;5023619;28;20217;-63
2023/08/21 06:29:27;;;;;;;8.98;3.00;;;;;;;;;;5023261;28;20544;-63
2023/08/21 06:31:54;;;;;;;8.50;2.90;;;;;;;;;;5010980;28;20050;-64
2023/08/21 06:34:20;;;;;;;6.00;2.60;;;;;;;;;;5020605;28;20144;-62
2023/08/21 06:36:47;;;;;;;11.55;3.45;;;;;;;;;;5023155;28;20054;-61
2023/08/21 06:39:13;;;;;;;9.38;2.90;;;;;;;;;;5026564;28;20057;-62
2023/08/21 06:41:40;;;;;;;6.38;3.13;;;;;;;;;;5020534;28;20504;-62
2023/08/21 06:44:06;;;;;;;3.83;2.50;;;;;;;;;;5011966;28;20238;-62
2023/08/21 06:46:34;;;;;;;8.38;2.80;;;;;;;;;;5019505;28;20157;-63
2023/08/21 06:49:00;;;;;;;7.18;2.42;;;;;;;;;;5022331;28;20054;-61
2023/08/21 06:51:27;;;;;;;9.50;2.95;;;;;;;;;;5020343;28;20603;-61
2023/08/21 06:53:53;;;;;;;5.88;2.80;;;;;;;;;;5023860;28;20066;-63
2023/08/21 06:56:19;;;;;;;8.48;2.42;;;;;;;;;;5028709;28;20054;-61
2023/08/21 06:58:46;;;;;;;7.95;2.55;;;;;;;;;;5022022;28;20155;-61
2023/08/21 07:01:12;;;;;;;8.38;2.70;;;;;;;;;;5024271;28;20060;-61
2023/08/21 07:03:39;;;;;;;6.57;2.80;;;;;;;;;;5014644;28;20058;-62
2023/08/21 07:06:06;;;;;;;6.40;2.65;;;;;;;;;;5020705;28;20073;-63
2023/08/21 07:08:33;;;;;;;6.85;2.75;;;;;;;;;;5034133;28;20050;-61
2023/08/21 07:11:01;;;;;;;7.32;2.38;;;;;;;;;;5021032;28;20135;-62
2023/08/21 07:13:28;;;;;;;7.85;2.20;;;;;;;;;;5028614;28;20057;-62
2023/08/21 07:15:54;;;;;;;12.55;2.47;;;;;;;;;;5026600;28;20133;-63
2023/08/21 07:18:21;;;;;;;5.18;2.35;;;;;;;;;;5024338;28;20089;-60
2023/08/21 07:20:47;;;;;;;5.75;2.30;;;;;;;;;;5020914;28;20145;-62
2023/08/21 07:23:14;;;;;;;5.35;2.75;;;;;;;;;;5027770;28;20058;-60
2023/08/21 07:25:40;;;;;;;6.22;2.10;;;;;;;;;;5022107;28;20061;-61
2023/08/21 07:28:07;;;;;;;10.90;2.10;;;;;;;;;;5023820;28;20054;-62
2023/08/21 07:30:36;;;;;;;6.13;2.00;;;;;;;;;;5019600;28;20508;-60
2023/08/21 07:33:03;;;;;;;6.53;2.10;;;;;;;;;;5025753;28;20052;-59
2023/08/21 07:35:29;;;;;;;4.03;2.08;;;;;;;;;;5030344;28;20050;-61
2023/08/21 07:37:55;;;;;;;8.15;1.95;;;;;;;;;;5020647;28;20156;-62
2023/08/21 07:40:22;;;;;;;4.07;1.50;;;;;;;;;;5013768;28;20050;-62
2023/08/21 07:42:48;;;;;;;3.15;2.30;;;;;;;;;;5023119;28;20662;-61
2023/08/21 07:45:15;;;;;;;6.28;1.80;;;;;;;;;;5032974;28;20058;-61
2023/08/21 07:47:41;;;;;;;6.25;1.80;;;;;;;;;;5021105;28;20053;-60
2023/08/21 07:50:08;;;;;;;3.38;1.60;;;;;;;;;;5024694;28;20136;-61
2023/08/21 07:52:35;;;;;;;6.85;2.20;;;;;;;;;;5021259;28;20054;-61
2023/08/21 07:55:03;;;;;;;8.82;2.65;;;;;;;;;;5010363;28;20061;-60
2023/08/21 07:57:30;;;;;;;5.88;1.73;;;;;;;;;;5024741;28;20058;-59
2023/08/21 07:59:56;;;;;;;4.47;2.13;;;;;;;;;;5021136;28;20062;-61
2023/08/21 08:02:23;;;;;;;6.55;2.47;;;;;;;;;;5021637;28;20058;-61
2023/08/21 08:04:49;;;;;;;5.85;1.58;;;;;;;;;;5035392;28;20057;-61
2023/08/21 08:07:16;;;;;;;5.05;1.42;;;;;;;;;;5022063;28;20053;-61
2023/08/21 08:09:43;;;;;;;8.77;2.00;;;;;;;;;;5016450;28;20053;-61
2023/08/21 08:12:09;;;;;;;6.13;2.22;;;;;;;;;;5008985;28;20576;-62
2023/08/21 08:14:35;;;;;;;5.75;2.05;;;;;;;;;;5017969;28;20112;-61
2023/08/21 08:17:02;;;;;;;7.40;2.30;;;;;;;;;;5028356;28;20145;-62
2023/08/21 08:19:28;;;;;;;9.05;2.35;;;;;;;;;;5041509;28;20061;-62
2023/08/21 08:21:55;;;;;;;9.18;1.90;;;;;;;;;;5020646;28;20673;-62
2023/08/21 08:24:21;;;;;;;4.47;1.30;;;;;;;;;;5034298;28;20088;-61
2023/08/21 08:26:48;;;;;;;4.50;1.30;;;;;;;;;;5029830;28;20513;-62
2023/08/21 08:29:15;;;;;;;6.72;1.70;;;;;;;;;;5023309;28;20700;-62
2023/08/21 08:31:41;;;;;;;8.00;1.45;;;;;;;;;;5024204;28;20159;-61
2023/08/21 08:34:08;;;;;;;10.63;1.60;;;;;;;;;;5020986;28;20290;-61
2023/08/21 08:36:35;;;;;;;5.55;1.95;;;;;;;;;;5022002;28;20795;-62
2023/08/21 08:39:02;;;;;;;5.00;1.35;;;;;;;;;;5020547;28;20479;-61
2023/08/21 08:41:58;;;;;;;5.40;1.23;;;;;;;;;;5020117;28;20237;-61
2023/08/21 08:44:25;;;;;;;3.80;1.13;;;;;;;;;;5024191;28;20173;-60
2023/08/21 08:46:51;;;;;;;6.07;1.50;;;;;;;;;;5021586;28;20054;-63
2023/08/21 08:49:19;;;;;;;6.82;1.52;;;;;;;;;;5024590;28;20054;-61
2023/08/21 08:51:46;;;;;;;4.50;1.50;;;;;;;;;;5006466;28;20523;-62
2023/08/21 08:54:13;;;;;;;4.65;1.67;;;;;;;;;;5001989;28;20149;-61
2023/08/21 08:56:39;;;;;;;7.18;1.77;;;;;;;;;;5018247;28;20057;-61
2023/08/21 08:59:07;;;;;;;3.45;1.48;;;;;;;;;;5001407;28;20050;-62
2023/08/21 09:01:34;;;;;;;4.38;1.20;;;;;;;;;;5017721;28;20141;-60
2023/08/21 09:04:01;;;;;;;5.38;1.52;;;;;;;;;;5019824;28;20061;-62
2023/08/21 09:06:28;;;;;;;5.05;1.67;;;;;;;;;;5021621;28;20145;-59
2023/08/21 09:08:55;;;;;;;6.55;1.50;;;;;;;;;;5036313;28;20133;-61
2023/08/21 09:11:22;;;;;;;4.10;1.40;;;;;;;;;;5028404;28;20603;-61
2023/08/21 09:13:49;;;;;;;4.97;1.40;;;;;;;;;;5044199;28;20622;-62
2023/08/21 09:16:16;;;;;;;6.80;1.40;;;;;;;;;;5033300;28;20058;-61
2023/08/21 09:18:49;;;;;;;5.32;1.13;;;;;;;;;;5044534;28;20140;-61
2023/08/21 09:21:17;;;;;;;4.95;1.60;;;;;;;;;;5032523;28;20112;-61
2023/08/21 09:23:44;;;;;;;7.45;1.65;;;;;;;;;;5025672;28;20480;-62
2023/08/21 09:26:11;;;;;;;3.97;1.60;;;;;;;;;;5033312;28;20066;-61
2023/08/21 09:28:37;;;;;;;8.75;2.13;;;;;;;;;;5044329;28;20096;-61
2023/08/21 09:31:03;;;;;;;4.90;1.50;;;;;;;;;;5044078;28;20398;-61
2023/08/21 09:33:30;;;;;;;4.82;1.40;;;;;;;;;;5043144;28;20045;-61
2023/08/21 09:35:57;;;;;;;4.07;1.50;;;;;;;;;;5035089;28;20062;-61
2023/08/21 09:38:25;;;;;;;7.97;1.75;;;;;;;;;;5023425;28;20053;-62
2023/08/21 09:40:53;;;;;;;5.28;1.40;;;;;;;;;;5023659;28;20746;-58
2023/08/21 09:43:23;;;;;;;9.00;1.45;;;;;;;;;;5023985;28;20089;-60
2023/08/21 09:45:52;;;;;;;9.15;1.88;;;;;;;;;;5035286;28;20057;-61
2023/08/21 09:48:20;;;;;;;6.63;1.38;;;;;;;;;;5042276;28;20077;-60
2023/08/21 09:50:46;;;;;;;4.03;1.63;;;;;;;;;;5037869;28;20053;-61
2023/08/21 09:53:13;;;;;;;5.20;1.60;;;;;;;;;;5022369;28;20057;-41
2023/08/21 09:55:39;;;;;;;10.63;1.90;;;;;;;;;;5013731;28;20064;-39
2023/08/21 09:58:06;;;;;;;6.20;1.17;;;;;;;;;;5030532;28;20504;-40
2023/08/21 10:00:34;;;;;;;6.50;1.30;;;;;;;;;;5016818;28;20151;-40
2023/08/21 10:03:03;;;;;;;4.82;1.50;;;;;;;;;;5023270;28;20120;-42
2023/08/21 10:05:31;;;;;;;5.65;1.27;;;;;;;;;;5023599;28;20129;-41
2023/08/21 10:07:59;;;;;;;11.27;1.60;;;;;;;;;;5026273;28;20312;-41
2023/08/21 10:10:25;;;;;;;4.32;1.10;;;;;;;;;;5023590;28;20061;-43
2023/08/21 10:12:52;;;;;;;4.00;1.40;;;;;;;;;;5019439;28;20057;-40
2023/08/21 10:15:19;;;;;;;5.20;1.48;;;;;;;;;;5023730;28;20058;-43
2023/08/21 10:17:45;;;;;;;4.93;1.20;;;;;;;;;;5018450;28;20054;-41
2023/08/21 10:20:11;;;;;;;4.63;2.28;;;;;;;;;;5010787;28;20057;-40
2023/08/21 10:22:48;;;;;;;3.78;1.13;;;;;;;;;;5018460;28;20068;-42
2023/08/21 10:25:21;;;;;;;4.70;1.10;;;;;;;;;;5023549;28;20140;-42
2023/08/21 10:27:52;;;;;;;2.17;0.90;;;;;;;;;;5023717;28;20252;-40
2023/08/21 10:30:23;;;;;;;4.10;1.30;;;;;;;;;;5020649;28;20065;-43
2023/08/21 10:32:51;;;;;;;6.20;1.92;;;;;;;;;;5031826;28;20057;-61
2023/08/21 10:35:18;;;;;;;5.13;1.55;;;;;;;;;;5023839;28;20065;-64
2023/08/21 10:38:17;;;;;;;3.33;1.30;;;;;;;;;;5021779;28;20077;-64
2023/08/21 10:41:03;;;;;;;4.80;1.58;;;;;;;;;;5017061;28;20053;-64
2023/08/21 10:43:45;;;;;;;3.10;1.42;;;;;;;;;;5013042;28;20132;-63
2023/08/21 10:46:12;;;;;;;4.07;1.67;;;;;;;;;;5043380;28;20504;-65
2023/08/21 10:48:39;;;;;;;3.10;1.40;;;;;;;;;;5026967;28;20493;-60
2023/08/21 10:51:07;;;;;;;4.55;1.70;;;;;;;;;;5020118;28;20069;-64
2023/08/21 10:53:34;;;;;;;6.35;1.80;;;;;;;;;;5034266;28;20574;-65
2023/08/21 10:56:01;;;;;;;4.03;1.58;;;;;;;;;;5031417;28;20128;-65
2023/08/21 10:58:28;;;;;;;3.38;1.40;;;;;;;;;;5022495;28;20080;-64
2023/08/21 11:01:01;;;;;;;2.28;1.00;;;;;;;;;;5025596;28;20053;-63
2023/08/21 11:03:27;;;;;;;4.22;1.45;;;;;;;;;;5022743;28;20065;-64
2023/08/21 11:06:04;;;;;;;4.47;0.93;;;;;;;;;;5022849;28;20053;-63
2023/08/21 11:08:34;;;;;;;3.55;1.83;;;;;;;;;;5034012;28;20057;-65
2023/08/21 11:11:04;;;;;;;2.67;1.10;;;;;;;;;;5030279;28;20067;-63
2023/08/21 11:13:31;;;;;;;5.57;1.85;;;;;;;;;;5033334;28;20060;-63
2023/08/21 11:15:58;;;;;;;2.60;1.73;;;;;;;;;;5023232;28;20090;-65
2023/08/21 11:18:31;;;;;;;4.10;1.60;;;;;;;;;;5017684;28;20065;-64
2023/08/21 11:21:04;;;;;;;5.82;1.70;;;;;;;;;;5020999;28;20509;-41
2023/08/21 11:23:34;;;;;;;3.95;1.75;;;;;;;;;;5017227;28;20050;-42
2023/08/21 11:26:02;;;;;;;5.85;1.42;;;;;;;;;;5016537;28;20062;-41
2023/08/21 11:28:46;;;;;;;;;;;;;;;;;;5018179;28;20058;-63
2023/08/21 11:31:13;;;;;;;3.63;1.38;;;;;;;;;;5021406;28;44949;-64
2023/08/21 11:33:39;;;;;;;2.95;1.10;;;;;;;;;;5010447;28;20099;-64
2023/08/21 11:36:06;;;;;;;3.95;1.20;;;;;;;;;;5018189;28;20065;-65
2023/08/21 11:38:32;;;;;;;4.93;1.55;;;;;;;;;;5024448;28;20050;-65
2023/08/21 11:40:59;;;;;;;5.65;1.35;;;;;;;;;;5022335;28;20054;-64
2023/08/21 11:43:36;;;;;;;5.13;0.98;;;;;;;;;;5021627;28;20497;-64
2023/08/21 11:46:03;;;;;;;4.88;1.30;;;;;;;;;;5036445;28;20144;-63
2023/08/21 11:48:30;;;;;;;4.18;1.48;;;;;;;;;;5022680;28;20054;-64
2023/08/21 11:50:57;;;;;;;2.50;1.30;;;;;;;;;;5005582;28;20058;-64
2023/08/21 11:53:37;;;;;;;6.13;1.55;;;;;;;;;;5001571;28;20054;-64
2023/08/21 11:56:08;;;;;;;3.47;1.17;;;;;;;;;;5028365;28;20060;-64
2023/08/21 11:58:37;;;;;;;2.40;1.00;;;;;;;;;;5022693;28;20081;-65
2023/08/21 12:01:04;;;;;;;3.05;0.95;;;;;;;;;;5022500;28;20069;-64
2023/08/21 12:03:35;;;;;;;5.00;1.35;;;;;;;;;;5023590;28;20054;-64
2023/08/21 12:06:04;;;;;;;2.75;0.90;;;;;;;;;;5021202;28;20140;-64
2023/08/21 12:08:31;;;;;;;5.38;1.15;;;;;;;;;;5021907;28;20543;-63
2023/08/21 12:10:57;;;;;;;1.45;0.95;;;;;;;;;;5040083;28;20107;-63
2023/08/21 12:13:23;;;;;;;1.73;1.20;;;;;;;;;;5032875;28;20135;-64
2023/08/21 12:15:51;;;;;;;4.10;1.20;;;;;;;;;;5017324;28;20050;-40
2023/08/21 12:18:17;;;;;;;4.70;1.42;;;;;;;;;;5022074;28;20065;-64
2023/08/21 12:20:44;;;;;;;4.28;1.27;;;;;;;;;;5020812;28;20089;-63
2023/08/21 12:23:10;;;;;;;2.70;1.17;;;;;;;;;;5012875;28;20057;-63
2023/08/21 12:25:37;;;;;;;2.78;1.08;;;;;;;;;;5020991;28;20058;-63
2023/08/21 12:28:03;;;;;;;4.72;1.52;;;;;;;;;;5002327;28;20060;-64
2023/08/21 12:30:35;;;;;;;3.60;0.70;;;;;;;;;;5016420;28;20128;-63
2023/08/21 12:33:02;;;;;;;4.80;1.40;;;;;;;;;;5021278;28;20061;-64
2023/08/21 12:35:42;;;;;;;4.57;1.58;;;;;;;;;;5021229;28;20455;-61
2023/08/21 12:38:12;;;;;;;4.30;1.65;;;;;;;;;;5024058;28;20429;-62
2023/08/21 12:40:39;;;;;;;4.05;1.38;;;;;;;;;;5025405;28;20439;-62
2023/08/21 12:43:06;;;;;;;4.95;1.25;;;;;;;;;;5025911;28;20057;-62
2023/08/21 12:45:33;;;;;;;3.33;1.10;;;;;;;;;;5023028;28;20058;-64
2023/08/21 12:48:00;;;;;;;3.28;1.00;;;;;;;;;;5014201;28;20046;-63
2023/08/21 12:50:26;;;;;;;4.55;1.38;;;;;;;;;;5017056;28;20619;-64
2023/08/21 12:52:53;;;;;;;6.20;1.00;;;;;;;;;;5024710;28;20053;-64
2023/08/21 12:55:19;;;;;;;3.65;1.02;;;;;;;;;;5023688;28;20100;-62
2023/08/21 12:57:46;;;;;;;4.80;1.42;;;;;;;;;;5022391;28;20592;-63
2023/08/21 13:00:13;;;;;;;3.88;1.02;;;;;;;;;;5025614;28;20160;-63
2023/08/21 13:02:40;;;;;;;2.50;0.80;;;;;;;;;;5024953;28;20137;-60
2023/08/21 13:05:07;;;;;;;1.50;0.57;;;;;;;;;;5031590;28;20054;-62
2023/08/21 13:07:33;;;;;;;0.98;0.70;;;;;;;;;;5024462;28;20050;-62
2023/08/21 13:10:00;;;;;;;3.00;1.17;;;;;;;;;;5028992;28;20149;-63
2023/08/21 13:12:26;;;;;;;4.55;1.30;;;;;;;;;;5018720;28;21099;-62
2023/08/21 13:14:53;;;;;;;3.25;1.15;;;;;;;;;;5015729;28;20049;-63
2023/08/21 13:17:19;;;;;;;3.35;1.02;;;;;;;;;;5023935;28;20152;-63
2023/08/21 13:19:46;;;;;;;3.03;0.95;;;;;;;;;;5030621;28;20054;-62
2023/08/21 13:22:12;;;;;;;2.97;1.38;;;;;;;;;;5023700;28;20060;-62
2023/08/21 13:24:39;;;;;;;3.47;1.00;;;;;;;;;;5026144;28;20167;-61
2023/08/21 13:27:05;;;;;;;3.08;1.15;;;;;;;;;;5035367;28;20214;-63
2023/08/21 13:29:32;;;;;;;5.05;1.52;;;;;;;;;;5022195;28;20054;-62
2023/08/21 13:31:58;;;;;;;3.70;1.27;;;;;;;;;;5021420;28;20053;-63
2023/08/21 13:34:25;;;;;;;2.05;0.93;;;;;;;;;;5023238;28;20061;-63
2023/08/21 13:36:52;;;;;;;4.75;1.15;;;;;;;;;;5030088;28;20046;-62
2023/08/21 13:39:18;;;;;;;4.03;1.40;;;;;;;;;;5010045;28;20061;-61
2023/08/21 13:41:50;;;;;;;2.47;1.30;;;;;;;;;;5013194;28;20162;-62
2023/08/21 13:44:17;;;;;;;3.80;1.00;;;;;;;;;;5022584;28;20112;-62
2023/08/21 13:46:45;;;;;;;4.05;1.30;;;;;;;;;;5021394;28;20100;-63
2023/08/21 13:49:12;;;;;;;4.53;1.25;;;;;;;;;;5016106;28;20073;-63
2023/08/21 13:51:39;;;;;;;7.25;1.40;;;;;;;;;;5004208;28;20058;-62
2023/08/21 13:54:05;;;;;;;3.45;1.23;;;;;;;;;;5028693;28;20529;-63
2023/08/21 13:56:32;;;;;;;2.22;0.95;;;;;;;;;;5014160;28;20872;-64
2023/08/21 13:58:58;;;;;;;2.95;1.13;;;;;;;;;;5018405;28;20137;-61
2023/08/21 14:01:24;;;;;;;5.45;1.38;;;;;;;;;;5020023;28;20141;-63
2023/08/21 14:03:51;;;;;;;3.88;1.25;;;;;;;;;;5022677;28;20493;-61
2023/08/21 14:06:18;;;;;;;1.60;0.90;;;;;;;;;;5030353;28;20060;-63
2023/08/21 14:08:45;;;;;;;3.65;1.00;;;;;;;;;;5019768;28;20532;-60
2023/08/21 14:11:11;;;;;;;3.13;1.20;;;;;;;;;;5023274;28;20053;-62
2023/08/21 14:13:38;;;;;;;2.97;1.20;;;;;;;;;;5018603;28;20050;-62
2023/08/21 14:16:04;;;;;;;3.50;1.52;;;;;;;;;;5030020;28;20061;-62
2023/08/21 14:18:31;;;;;;;3.08;1.08;;;;;;;;;;5025364;28;20192;-61
2023/08/21 14:20:58;;;;;;;3.63;0.80;;;;;;;;;;5020294;28;20046;-62
2023/08/21 14:23:24;;;;;;;4.60;1.02;;;;;;;;;;5020920;28;20057;-62
2023/08/21 14:25:51;;;;;;;2.55;0.90;;;;;;;;;;5021373;28;20096;-62
2023/08/21 14:28:18;;;;;;;3.63;1.00;;;;;;;;;;5025862;28;20577;-61
2023/08/21 14:30:46;;;;;;;3.60;1.52;;;;;;;;;;5018288;28;20056;-63
2023/08/21 14:33:13;;;;;;;3.58;0.98;;;;;;;;;;5021659;28;20062;-62
2023/08/21 14:35:40;;;;;;;4.63;1.23;;;;;;;;;;5026774;28;20060;-61
2023/08/21 14:38:06;;;;;;;4.05;1.10;;;;;;;;;;5024023;28;20062;-62
2023/08/21 14:40:33;;;;;;;4.20;1.25;;;;;;;;;;5022386;28;20485;-67
2023/08/21 14:42:59;;;;;;;4.05;1.67;;;;;;;;;;5016846;28;20567;-65